createdAt,value
2017-04-19T00:00:49.550Z,8.83
2017-04-19T00:01:49.036Z,7.78
2017-04-19T00:02:48.468Z,7.98
2017-04-19T00:03:47.887Z,8.13
2017-04-19T00:04:47.296Z,8.20
2017-04-19T00:05:47.307Z,8.58
2017-04-19T00:06:46.713Z,10.35
2017-04-19T00:07:46.147Z,8.08
2017-04-19T00:08:45.587Z,9.00
2017-04-19T00:09:44.987Z,10.53
2017-04-19T00:10:44.383Z,8.97
2017-04-19T00:11:43.111Z,8.07
2017-04-19T00:12:41.802Z,8.60
2017-04-19T00:13:41.214Z,8.70
2017-04-19T00:14:40.653Z,9.60
2017-04-19T00:15:40.125Z,7.27
2017-04-19T00:16:40.010Z,7.32
2017-04-19T00:17:39.745Z,10.30
2017-04-19T00:18:39.130Z,8.07
2017-04-19T00:19:38.550Z,7.32
2017-04-19T00:20:37.946Z,9.17
2017-04-19T00:21:37.407Z,9.12
2017-04-19T00:22:36.857Z,9.83
2017-04-19T00:23:36.263Z,9.07
2017-04-19T00:24:35.697Z,11.13
2017-04-19T00:25:35.110Z,8.52
2017-04-19T00:26:34.578Z,7.47
2017-04-19T00:27:34.714Z,9.30
2017-04-19T00:28:34.162Z,8.95
2017-04-19T00:29:33.602Z,9.42
2017-04-19T00:30:33.005Z,9.18
2017-04-19T00:31:32.389Z,9.15
2017-04-19T00:32:31.781Z,9.92
2017-04-19T00:33:30.945Z,10.12
2017-04-19T00:34:30.354Z,9.28
2017-04-19T00:35:29.769Z,7.55
2017-04-19T00:36:29.178Z,9.13
2017-04-19T00:37:28.578Z,8.53
2017-04-19T00:38:27.997Z,8.55
2017-04-19T00:39:27.414Z,9.45
2017-04-19T00:40:26.843Z,9.97
2017-04-19T00:41:26.238Z,8.98
2017-04-19T00:42:25.009Z,8.13
2017-04-19T00:43:24.401Z,9.42
2017-04-19T00:44:23.814Z,9.77
2017-04-19T00:45:23.201Z,7.60
2017-04-19T00:46:22.578Z,8.32
2017-04-19T00:47:21.965Z,9.98
2017-04-19T00:48:21.357Z,8.88
2017-04-19T00:49:20.810Z,9.15
2017-04-19T00:50:20.250Z,10.23
2017-04-19T00:51:19.643Z,8.40
2017-04-19T00:52:19.082Z,8.50
2017-04-19T00:53:18.469Z,8.23
2017-04-19T00:54:17.161Z,9.32
2017-04-19T00:55:16.396Z,9.17
2017-04-19T00:56:15.608Z,9.90
2017-04-19T00:57:14.845Z,9.13
2017-04-19T00:58:14.420Z,10.12
2017-04-19T00:59:13.660Z,8.43
2017-04-19T01:00:12.906Z,10.03
2017-04-19T01:01:12.149Z,7.92
2017-04-19T01:02:11.381Z,8.98
2017-04-19T01:03:10.613Z,9.38
2017-04-19T01:04:09.894Z,9.30
2017-04-19T01:05:09.164Z,11.10
2017-04-19T01:06:08.391Z,7.82
2017-04-19T01:07:07.612Z,8.58
2017-04-19T01:08:06.854Z,10.35
2017-04-19T01:09:06.719Z,9.73
2017-04-19T01:10:05.979Z,10.97
2017-04-19T01:11:05.274Z,8.98
2017-04-19T01:12:04.496Z,8.87
2017-04-19T01:13:03.717Z,8.82
2017-04-19T01:14:02.943Z,8.72
2017-04-19T01:15:01.412Z,11.58
2017-04-19T01:16:00.680Z,8.30
2017-04-19T01:16:59.900Z,9.10
2017-04-19T01:17:59.170Z,9.13
2017-04-19T01:18:58.389Z,10.40
2017-04-19T01:19:57.713Z,10.13
2017-04-19T01:20:56.952Z,10.32
2017-04-19T01:21:56.171Z,9.32
2017-04-19T01:22:55.391Z,9.63
2017-04-19T01:23:54.632Z,8.57
2017-04-19T01:24:53.892Z,8.78
2017-04-19T01:25:53.109Z,9.68
2017-04-19T01:26:52.348Z,9.17
2017-04-19T01:27:51.564Z,9.10
2017-04-19T01:28:50.771Z,8.70
2017-04-19T01:29:49.271Z,9.23
2017-04-19T01:30:48.507Z,9.40
2017-04-19T01:31:47.764Z,9.58
2017-04-19T01:32:47.018Z,9.10
2017-04-19T01:33:46.249Z,8.73
2017-04-19T01:34:45.500Z,7.82
2017-04-19T01:35:45.004Z,9.73
2017-04-19T01:36:44.250Z,9.30
2017-04-19T01:37:43.468Z,10.33
2017-04-19T01:38:42.700Z,9.07
2017-04-19T01:39:42.236Z,9.05
2017-04-19T01:40:41.499Z,9.42
2017-04-19T01:41:41.483Z,7.83
2017-04-19T01:42:40.729Z,10.35
2017-04-19T01:43:40.720Z,11.52
2017-04-19T01:44:39.959Z,8.68
2017-04-19T01:45:39.196Z,8.72
2017-04-19T01:46:38.416Z,9.47
2017-04-19T01:47:36.873Z,8.10
2017-04-19T01:48:36.083Z,10.78
2017-04-19T01:49:35.336Z,10.30
2017-04-19T01:50:34.697Z,9.82
2017-04-19T01:51:33.925Z,9.08
2017-04-19T01:52:33.159Z,10.55
2017-04-19T01:53:32.380Z,8.87
2017-04-19T01:54:31.620Z,10.98
2017-04-19T01:55:30.862Z,11.63
2017-04-19T01:56:30.142Z,15.02
2017-04-19T01:57:28.601Z,10.83
2017-04-19T01:58:27.832Z,12.88
2017-04-19T01:59:27.084Z,9.85
2017-04-19T02:00:26.628Z,10.12
2017-04-19T02:01:25.856Z,11.40
2017-04-19T02:02:25.082Z,10.22
2017-04-19T02:03:24.376Z,10.40
2017-04-19T02:04:23.603Z,11.32
2017-04-19T02:05:23.240Z,11.92
2017-04-19T02:06:27.913Z,9.58
2017-04-19T02:07:32.412Z,10.33
2017-04-19T02:08:31.728Z,11.90
2017-04-19T02:09:30.961Z,11.57
2017-04-19T02:10:30.312Z,10.52
2017-04-19T02:11:29.532Z,10.12
2017-04-19T02:12:28.760Z,10.12
2017-04-19T02:13:28.074Z,8.60
2017-04-19T02:14:27.290Z,10.27
2017-04-19T02:15:26.936Z,8.92
2017-04-19T02:16:26.170Z,11.32
2017-04-19T02:17:26.815Z,11.20
2017-04-19T02:18:26.343Z,10.55
2017-04-19T02:19:25.571Z,9.07
2017-04-19T02:20:25.037Z,9.52
2017-04-19T02:21:24.004Z,10.43
2017-04-19T02:22:24.012Z,9.82
2017-04-19T02:23:22.447Z,10.83
2017-04-19T02:24:23.003Z,9.80
2017-04-19T02:25:23.386Z,11.52
2017-04-19T02:26:22.637Z,10.73
2017-04-19T02:27:21.869Z,10.25
2017-04-19T02:28:21.088Z,10.30
2017-04-19T02:29:20.316Z,10.92
2017-04-19T02:30:19.613Z,10.55
2017-04-19T02:31:18.865Z,9.85
2017-04-19T02:32:18.088Z,10.58
2017-04-19T02:33:17.325Z,11.17
2017-04-19T02:34:16.557Z,11.35
2017-04-19T02:35:15.789Z,9.22
2017-04-19T02:36:15.794Z,10.30
2017-04-19T02:37:16.488Z,10.90
2017-04-19T02:38:15.700Z,11.12
2017-04-19T02:39:14.912Z,11.50
2017-04-19T02:40:15.422Z,8.67
2017-04-19T02:41:14.821Z,8.58
2017-04-19T02:42:14.093Z,11.00
2017-04-19T02:43:13.557Z,10.87
2017-04-19T02:44:12.775Z,10.83
2017-04-19T02:45:11.992Z,10.50
2017-04-19T02:46:11.443Z,12.60
2017-04-19T02:47:10.656Z,9.95
2017-04-19T02:48:09.880Z,9.92
2017-04-19T02:49:09.113Z,11.32
2017-04-19T02:50:08.348Z,10.10
2017-04-19T02:51:08.624Z,10.67
2017-04-19T02:52:07.829Z,10.98
2017-04-19T02:53:07.112Z,11.43
2017-04-19T02:54:06.359Z,12.42
2017-04-19T02:55:05.612Z,9.07
2017-04-19T02:56:04.836Z,8.30
2017-04-19T02:57:04.083Z,9.50
2017-04-19T02:58:03.293Z,9.97
2017-04-19T02:59:02.519Z,9.10
2017-04-19T03:00:01.733Z,8.95
2017-04-19T03:01:00.300Z,10.02
2017-04-19T03:01:59.614Z,10.23
2017-04-19T03:02:59.684Z,9.27
2017-04-19T03:03:59.051Z,9.22
2017-04-19T03:04:58.474Z,10.93
2017-04-19T03:05:56.956Z,10.00
2017-04-19T03:06:56.441Z,11.38
2017-04-19T03:07:55.664Z,8.33
2017-04-19T03:08:54.872Z,10.83
2017-04-19T03:09:54.217Z,9.40
2017-04-19T03:10:52.668Z,9.17
2017-04-19T03:11:51.905Z,10.35
2017-04-19T03:12:51.116Z,8.83
2017-04-19T03:13:51.085Z,10.47
2017-04-19T03:14:50.308Z,11.53
2017-04-19T03:15:49.512Z,8.40
2017-04-19T03:16:48.748Z,8.50
2017-04-19T03:17:48.097Z,9.55
2017-04-19T03:18:47.317Z,11.38
2017-04-19T03:19:46.540Z,12.28
2017-04-19T03:20:45.764Z,11.50
2017-04-19T03:21:45.055Z,11.50
2017-04-19T03:22:44.281Z,10.30
2017-04-19T03:23:43.503Z,9.28
2017-04-19T03:24:42.737Z,10.35
2017-04-19T03:25:41.213Z,10.10
2017-04-19T03:26:40.796Z,9.50
2017-04-19T03:27:40.019Z,9.62
2017-04-19T03:28:38.473Z,9.77
2017-04-19T03:29:37.698Z,10.82
2017-04-19T03:30:36.895Z,9.50
2017-04-19T03:31:36.164Z,10.08
2017-04-19T03:32:35.403Z,10.40
2017-04-19T03:33:34.045Z,9.73
2017-04-19T03:34:33.341Z,9.38
2017-04-19T03:35:32.555Z,9.90
2017-04-19T03:36:31.797Z,9.63
2017-04-19T03:37:30.340Z,9.50
2017-04-19T03:38:29.567Z,11.23
2017-04-19T03:39:29.124Z,10.00
2017-04-19T03:40:28.332Z,10.22
2017-04-19T03:41:27.561Z,7.98
2017-04-19T03:42:26.852Z,10.22
2017-04-19T03:43:26.068Z,8.80
2017-04-19T03:44:25.274Z,8.42
2017-04-19T03:45:24.495Z,11.88
2017-04-19T03:46:23.692Z,9.00
2017-04-19T03:47:22.938Z,10.08
2017-04-19T03:48:22.180Z,10.52
2017-04-19T03:49:21.387Z,9.80
2017-04-19T03:50:20.591Z,9.13
2017-04-19T03:51:19.804Z,10.53
2017-04-19T03:52:19.052Z,9.33
2017-04-19T03:53:18.269Z,9.20
2017-04-19T03:54:17.508Z,8.00
2017-04-19T03:55:16.725Z,8.78
2017-04-19T03:56:16.005Z,10.05
2017-04-19T03:57:15.237Z,10.68
2017-04-19T03:58:14.455Z,10.80
2017-04-19T03:59:13.693Z,9.65
2017-04-19T04:00:12.922Z,11.22
2017-04-19T04:01:12.136Z,8.48
2017-04-19T04:02:11.632Z,9.48
2017-04-19T04:03:10.848Z,9.43
2017-04-19T04:04:10.139Z,11.17
2017-04-19T04:05:08.585Z,10.97
2017-04-19T04:06:07.819Z,9.58
2017-04-19T04:07:06.381Z,10.03
2017-04-19T04:08:05.621Z,9.35
2017-04-19T04:09:05.692Z,9.15
2017-04-19T04:10:04.933Z,8.93
2017-04-19T04:11:04.194Z,9.18
2017-04-19T04:12:03.409Z,9.92
2017-04-19T04:13:02.668Z,10.83
2017-04-19T04:14:01.913Z,10.58
2017-04-19T04:15:00.439Z,9.52
2017-04-19T04:15:59.674Z,9.17
2017-04-19T04:16:58.140Z,9.37
2017-04-19T04:17:57.401Z,9.95
2017-04-19T04:18:56.621Z,9.45
2017-04-19T04:19:55.848Z,10.17
2017-04-19T04:20:55.060Z,9.00
2017-04-19T04:21:54.279Z,10.95
2017-04-19T04:22:53.520Z,8.87
2017-04-19T04:23:52.732Z,9.03
2017-04-19T04:24:51.957Z,12.00
2017-04-19T04:25:51.170Z,9.80
2017-04-19T04:26:51.128Z,8.35
2017-04-19T04:27:50.431Z,12.48
2017-04-19T04:28:49.694Z,8.18
2017-04-19T04:29:48.933Z,10.38
2017-04-19T04:30:48.160Z,8.83
2017-04-19T04:31:47.719Z,9.87
2017-04-19T04:32:46.963Z,8.58
2017-04-19T04:33:46.184Z,10.88
2017-04-19T04:34:45.408Z,9.62
2017-04-19T04:35:44.615Z,9.55
2017-04-19T04:36:43.849Z,8.32
2017-04-19T04:37:43.136Z,9.70
2017-04-19T04:38:42.372Z,7.65
2017-04-19T04:39:41.604Z,9.55
2017-04-19T04:40:40.837Z,10.67
2017-04-19T04:41:40.053Z,9.60
2017-04-19T04:42:39.293Z,8.67
2017-04-19T04:43:38.760Z,9.12
2017-04-19T04:44:38.241Z,12.92
2017-04-19T04:45:37.491Z,11.93
2017-04-19T04:46:36.711Z,8.75
2017-04-19T04:47:35.937Z,9.15
2017-04-19T04:48:35.257Z,8.97
2017-04-19T04:49:34.500Z,8.78
2017-04-19T04:50:33.793Z,10.22
2017-04-19T04:51:33.018Z,9.55
2017-04-19T04:52:32.273Z,9.45
2017-04-19T04:53:31.516Z,10.73
2017-04-19T04:54:30.760Z,8.08
2017-04-19T04:55:29.989Z,10.05
2017-04-19T04:56:29.207Z,8.90
2017-04-19T04:57:28.416Z,8.92
2017-04-19T04:58:27.668Z,10.23
2017-04-19T04:59:26.915Z,10.87
2017-04-19T05:00:26.129Z,13.53
2017-04-19T05:01:25.437Z,13.83
2017-04-19T05:02:24.682Z,12.43
2017-04-19T05:03:23.932Z,9.98
2017-04-19T05:04:23.246Z,7.72
2017-04-19T05:05:22.503Z,10.13
2017-04-19T05:06:21.726Z,8.73
2017-04-19T05:07:20.944Z,8.22
2017-04-19T05:08:20.219Z,8.02
2017-04-19T05:09:19.465Z,8.83
2017-04-19T05:10:18.683Z,8.27
2017-04-19T05:11:17.137Z,8.33
2017-04-19T05:12:17.096Z,10.78
2017-04-19T05:13:17.057Z,9.65
2017-04-19T05:14:16.300Z,8.80
2017-04-19T05:15:15.509Z,8.88
2017-04-19T05:16:15.750Z,9.02
2017-04-19T05:17:14.968Z,9.02
2017-04-19T05:18:14.328Z,9.97
2017-04-19T05:19:13.579Z,8.88
2017-04-19T05:20:12.802Z,8.85
2017-04-19T05:21:12.029Z,8.98
2017-04-19T05:22:11.279Z,7.93
2017-04-19T05:23:09.788Z,8.97
2017-04-19T05:24:09.033Z,9.32
2017-04-19T05:25:08.336Z,8.07
2017-04-19T05:26:07.734Z,8.95
2017-04-19T05:27:06.968Z,8.53
2017-04-19T05:28:05.473Z,7.97
2017-04-19T05:29:04.744Z,7.63
2017-04-19T05:30:04.028Z,9.43
2017-04-19T05:31:03.241Z,8.70
2017-04-19T05:32:02.480Z,8.15
2017-04-19T05:33:01.707Z,10.30
2017-04-19T05:34:00.965Z,8.02
2017-04-19T05:35:00.181Z,8.88
2017-04-19T05:35:59.396Z,8.63
2017-04-19T05:36:58.616Z,9.02
2017-04-19T05:37:57.848Z,8.08
2017-04-19T05:38:57.086Z,7.87
2017-04-19T05:39:56.312Z,8.18
2017-04-19T05:40:55.541Z,8.00
2017-04-19T05:41:54.833Z,8.10
2017-04-19T05:42:54.129Z,8.70
2017-04-19T05:43:53.409Z,7.85
2017-04-19T05:44:52.667Z,7.35
2017-04-19T05:45:51.922Z,7.43
2017-04-19T05:46:51.155Z,8.72
2017-04-19T05:47:50.377Z,7.70
2017-04-19T05:48:49.612Z,11.35
2017-04-19T05:49:48.948Z,9.05
2017-04-19T05:50:48.187Z,7.50
2017-04-19T05:51:47.453Z,8.57
2017-04-19T05:52:46.684Z,7.67
2017-04-19T05:53:45.895Z,9.53
2017-04-19T05:54:44.385Z,7.48
2017-04-19T05:55:43.604Z,7.70
2017-04-19T05:56:42.820Z,7.68
2017-04-19T05:57:42.060Z,6.52
2017-04-19T05:58:42.035Z,8.62
2017-04-19T05:59:41.314Z,8.15
2017-04-19T06:00:40.534Z,7.15
2017-04-19T06:01:39.756Z,8.80
2017-04-19T06:02:38.980Z,6.98
2017-04-19T06:03:38.220Z,6.77
2017-04-19T06:04:37.464Z,7.25
2017-04-19T06:05:36.696Z,7.65
2017-04-19T06:06:35.965Z,5.92
2017-04-19T06:07:35.192Z,6.68
2017-04-19T06:08:35.155Z,7.17
2017-04-19T06:09:34.393Z,6.98
2017-04-19T06:10:33.608Z,7.73
2017-04-19T06:11:32.820Z,6.02
2017-04-19T06:12:32.056Z,7.15
2017-04-19T06:13:30.524Z,6.08
2017-04-19T06:14:30.117Z,7.62
2017-04-19T06:15:29.335Z,6.35
2017-04-19T06:16:28.532Z,6.15
2017-04-19T06:17:27.761Z,7.50
2017-04-19T06:18:26.988Z,6.18
2017-04-19T06:19:26.292Z,5.23
2017-04-19T06:20:25.595Z,5.37
2017-04-19T06:21:24.811Z,4.93
2017-04-19T06:22:24.041Z,5.67
2017-04-19T06:23:24.388Z,5.42
2017-04-19T06:24:23.820Z,5.55
2017-04-19T06:25:23.433Z,5.38
2017-04-19T06:26:22.664Z,5.95
2017-04-19T06:27:22.391Z,6.07
2017-04-19T06:28:21.872Z,5.97
2017-04-19T06:29:21.705Z,6.50
2017-04-19T06:30:21.112Z,5.48
2017-04-19T06:31:20.348Z,5.32
2017-04-19T06:32:19.910Z,5.42
2017-04-19T06:33:19.455Z,5.65
2017-04-19T06:34:18.841Z,6.27
2017-04-19T06:35:18.237Z,5.20
2017-04-19T06:36:17.636Z,6.43
2017-04-19T06:37:17.332Z,5.63
2017-04-19T06:38:16.587Z,5.77
2017-04-19T06:39:16.200Z,4.77
2017-04-19T06:40:15.842Z,6.43
2017-04-19T06:41:15.177Z,4.82
2017-04-19T06:42:14.908Z,6.65
2017-04-19T06:43:14.444Z,4.77
2017-04-19T06:44:13.890Z,6.08
2017-04-19T06:45:13.428Z,6.13
2017-04-19T06:46:12.651Z,4.85
2017-04-19T06:47:12.145Z,5.17
2017-04-19T06:48:11.983Z,5.58
2017-04-19T06:49:12.021Z,5.03
2017-04-19T06:50:12.113Z,4.22
2017-04-19T06:51:11.625Z,4.47
2017-04-19T06:52:11.424Z,5.08
2017-04-19T06:53:11.084Z,4.53
2017-04-19T06:54:10.794Z,5.67
2017-04-19T06:55:10.218Z,5.98
2017-04-19T06:56:09.623Z,4.52
2017-04-19T06:57:09.174Z,4.90
2017-04-19T06:58:08.841Z,6.47
2017-04-19T06:59:08.227Z,4.73
2017-04-19T07:00:07.807Z,6.00
2017-04-19T07:01:07.432Z,5.28
2017-04-19T07:02:06.820Z,5.27
2017-04-19T07:03:08.016Z,5.60
2017-04-19T07:04:08.100Z,5.22
2017-04-19T07:05:07.185Z,5.68
2017-04-19T07:06:07.181Z,5.05
2017-04-19T07:07:06.701Z,5.20
2017-04-19T07:08:06.290Z,4.63
2017-04-19T07:09:06.087Z,4.48
2017-04-19T07:10:05.779Z,5.12
2017-04-19T07:11:05.156Z,4.35
2017-04-19T07:12:04.836Z,4.50
2017-04-19T07:13:04.529Z,4.82
2017-04-19T07:14:03.828Z,4.82
2017-04-19T07:15:03.295Z,4.52
2017-04-19T07:16:03.071Z,5.00
2017-04-19T07:17:02.584Z,4.85
2017-04-19T07:18:01.611Z,4.52
2017-04-19T07:19:01.113Z,4.87
2017-04-19T07:20:00.740Z,5.68
2017-04-19T07:20:59.988Z,4.80
2017-04-19T07:21:59.596Z,4.70
2017-04-19T07:22:59.128Z,4.52
2017-04-19T07:23:58.681Z,6.40
2017-04-19T07:24:58.061Z,4.40
2017-04-19T07:25:57.466Z,4.48
2017-04-19T07:26:57.206Z,4.67
2017-04-19T07:27:56.441Z,4.02
2017-04-19T07:28:56.041Z,6.10
2017-04-19T07:29:55.672Z,4.15
2017-04-19T07:30:55.117Z,4.03
2017-04-19T07:31:54.635Z,3.97
2017-04-19T07:32:54.327Z,4.33
2017-04-19T07:33:53.990Z,4.82
2017-04-19T07:34:53.657Z,3.87
2017-04-19T07:35:52.725Z,6.12
2017-04-19T07:36:52.400Z,4.52
2017-04-19T07:37:52.194Z,4.32
2017-04-19T07:38:52.087Z,4.15
2017-04-19T07:39:51.581Z,4.55
2017-04-19T07:40:50.410Z,5.00
2017-04-19T07:41:50.199Z,4.80
2017-04-19T07:42:49.481Z,4.55
2017-04-19T07:43:49.104Z,4.80
2017-04-19T07:44:49.009Z,4.60
2017-04-19T07:45:48.701Z,4.25
2017-04-19T07:46:48.406Z,4.33
2017-04-19T07:47:47.872Z,4.13
2017-04-19T07:48:48.234Z,4.48
2017-04-19T07:49:47.669Z,3.87
2017-04-19T07:50:47.269Z,4.20
2017-04-19T07:51:46.109Z,4.33
2017-04-19T07:52:45.644Z,3.53
2017-04-19T07:53:44.880Z,4.25
2017-04-19T07:54:44.480Z,3.98
2017-04-19T07:55:44.410Z,4.25
2017-04-19T07:56:43.369Z,3.80
2017-04-19T07:57:42.641Z,4.25
2017-04-19T07:58:42.073Z,4.00
2017-04-19T07:59:41.584Z,4.77
2017-04-19T08:00:40.848Z,5.33
2017-04-19T08:01:40.124Z,5.02
2017-04-19T08:02:39.352Z,3.70
2017-04-19T08:03:38.583Z,4.50
2017-04-19T08:04:38.249Z,4.52
2017-04-19T08:05:37.472Z,5.25
2017-04-19T08:06:36.716Z,4.07
2017-04-19T08:07:36.039Z,4.10
2017-04-19T08:08:35.695Z,4.27
2017-04-19T08:09:34.912Z,3.93
2017-04-19T08:10:34.232Z,4.47
2017-04-19T08:11:33.478Z,6.18
2017-04-19T08:12:33.463Z,4.35
2017-04-19T08:13:32.715Z,4.52
2017-04-19T08:14:32.048Z,4.20
2017-04-19T08:15:30.512Z,4.20
2017-04-19T08:16:30.020Z,3.80
2017-04-19T08:17:29.244Z,3.65
2017-04-19T08:18:28.742Z,4.00
2017-04-19T08:19:28.540Z,4.42
2017-04-19T08:20:29.525Z,4.57
2017-04-19T08:21:28.905Z,3.77
2017-04-19T08:22:28.175Z,5.17
2017-04-19T08:23:27.380Z,4.07
2017-04-19T08:24:26.603Z,3.35
2017-04-19T08:25:25.893Z,4.03
2017-04-19T08:26:25.240Z,4.65
2017-04-19T08:27:24.483Z,3.20
2017-04-19T08:28:23.704Z,3.72
2017-04-19T08:29:22.925Z,3.73
2017-04-19T08:30:22.149Z,3.50
2017-04-19T08:31:21.375Z,3.05
2017-04-19T08:32:20.701Z,3.37
2017-04-19T08:33:19.912Z,3.28
2017-04-19T08:34:19.186Z,3.55
2017-04-19T08:35:18.405Z,3.23
2017-04-19T08:36:17.670Z,3.28
2017-04-19T08:37:16.920Z,4.07
2017-04-19T08:38:16.144Z,4.35
2017-04-19T08:39:15.364Z,3.27
2017-04-19T08:40:14.575Z,3.88
2017-04-19T08:41:13.784Z,4.75
2017-04-19T08:42:13.020Z,4.18
2017-04-19T08:43:12.344Z,3.78
2017-04-19T08:44:11.564Z,4.68
2017-04-19T08:45:10.796Z,3.78
2017-04-19T08:46:10.019Z,4.08
2017-04-19T08:47:09.283Z,4.00
2017-04-19T08:48:08.504Z,2.85
2017-04-19T08:49:07.752Z,3.83
2017-04-19T08:50:06.989Z,4.58
2017-04-19T08:51:06.233Z,3.80
2017-04-19T08:52:05.765Z,6.37
2017-04-19T08:53:05.025Z,3.40
2017-04-19T08:54:04.301Z,3.22
2017-04-19T08:55:03.544Z,3.65
2017-04-19T08:56:02.765Z,3.42
2017-04-19T08:57:02.040Z,3.00
2017-04-19T08:58:00.536Z,2.62
2017-04-19T08:58:59.790Z,3.20
2017-04-19T08:59:59.017Z,2.82
2017-04-19T09:00:58.244Z,4.47
2017-04-19T09:01:57.546Z,4.72
2017-04-19T09:02:56.780Z,3.25
2017-04-19T09:03:55.996Z,3.17
2017-04-19T09:04:55.216Z,4.62
2017-04-19T09:05:54.444Z,6.33
2017-04-19T09:06:53.672Z,4.08
2017-04-19T09:07:52.914Z,3.48
2017-04-19T09:08:52.129Z,3.30
2017-04-19T09:09:51.346Z,3.38
2017-04-19T09:10:50.572Z,4.08
2017-04-19T09:11:49.816Z,3.60
2017-04-19T09:12:49.072Z,3.62
2017-04-19T09:13:48.284Z,3.13
2017-04-19T09:14:47.504Z,4.67
2017-04-19T09:15:46.740Z,3.17
2017-04-19T09:16:45.992Z,3.72
2017-04-19T09:17:45.234Z,3.38
2017-04-19T09:18:44.459Z,2.83
2017-04-19T09:19:43.698Z,3.72
2017-04-19T09:20:42.917Z,3.57
2017-04-19T09:21:42.160Z,3.73
2017-04-19T09:22:41.408Z,3.48
2017-04-19T09:23:40.728Z,2.95
2017-04-19T09:24:39.948Z,3.43
2017-04-19T09:25:39.169Z,3.52
2017-04-19T09:26:38.376Z,3.73
2017-04-19T09:27:37.636Z,5.12
2017-04-19T09:28:36.867Z,3.22
2017-04-19T09:29:36.084Z,4.05
2017-04-19T09:30:35.303Z,3.80
2017-04-19T09:31:34.512Z,3.62
2017-04-19T09:32:33.732Z,4.00
2017-04-19T09:33:32.979Z,3.80
2017-04-19T09:34:32.188Z,3.62
2017-04-19T09:35:31.410Z,3.70
2017-04-19T09:36:30.624Z,3.82
2017-04-19T09:37:29.845Z,3.13
2017-04-19T09:38:29.113Z,4.53
2017-04-19T09:39:28.342Z,2.87
2017-04-19T09:40:27.552Z,3.27
2017-04-19T09:41:26.796Z,3.08
2017-04-19T09:42:26.025Z,3.33
2017-04-19T09:43:25.320Z,3.25
2017-04-19T09:44:24.532Z,2.67
2017-04-19T09:45:23.754Z,3.90
2017-04-19T09:46:22.968Z,3.72
2017-04-19T09:47:22.228Z,3.75
2017-04-19T09:48:21.511Z,3.65
2017-04-19T09:49:20.740Z,5.13
2017-04-19T09:50:19.983Z,3.67
2017-04-19T09:51:19.191Z,3.90
2017-04-19T09:52:18.419Z,3.43
2017-04-19T09:53:17.697Z,3.90
2017-04-19T09:54:16.920Z,4.50
2017-04-19T09:55:16.148Z,4.05
2017-04-19T09:56:15.374Z,3.83
2017-04-19T09:57:14.601Z,3.72
2017-04-19T09:58:13.842Z,5.57
2017-04-19T09:59:13.101Z,3.67
2017-04-19T10:00:12.333Z,3.82
2017-04-19T10:01:11.612Z,3.83
2017-04-19T10:02:10.837Z,5.68
2017-04-19T10:03:10.075Z,3.02
2017-04-19T10:04:09.472Z,3.73
2017-04-19T10:05:09.029Z,4.30
2017-04-19T10:06:08.257Z,4.17
2017-04-19T10:07:07.491Z,3.90
2017-04-19T10:08:06.740Z,3.83
2017-04-19T10:09:06.029Z,3.23
2017-04-19T10:10:05.248Z,7.33
2017-04-19T10:11:04.476Z,3.15
2017-04-19T10:12:03.732Z,3.07
2017-04-19T10:13:03.045Z,3.95
2017-04-19T10:14:02.324Z,3.52
2017-04-19T10:15:00.885Z,4.20
2017-04-19T10:16:00.117Z,4.05
2017-04-19T10:16:59.364Z,3.70
2017-04-19T10:17:58.585Z,4.17
2017-04-19T10:18:57.818Z,7.37
2017-04-19T10:19:57.042Z,5.52
2017-04-19T10:20:56.284Z,3.85
2017-04-19T10:21:55.492Z,7.73
2017-04-19T10:22:54.757Z,5.88
2017-04-19T10:23:53.996Z,4.42
2017-04-19T10:24:53.284Z,4.05
2017-04-19T10:25:52.502Z,3.95
2017-04-19T10:26:52.459Z,4.88
2017-04-19T10:27:51.692Z,4.03
2017-04-19T10:28:51.016Z,4.00
2017-04-19T10:29:50.233Z,3.82
2017-04-19T10:30:49.468Z,4.28
2017-04-19T10:31:48.684Z,3.75
2017-04-19T10:32:47.896Z,4.03
2017-04-19T10:33:47.169Z,3.88
2017-04-19T10:34:46.387Z,3.93
2017-04-19T10:35:45.625Z,3.87
2017-04-19T10:36:44.856Z,3.55
2017-04-19T10:37:44.072Z,4.52
2017-04-19T10:38:43.297Z,4.23
2017-04-19T10:39:42.547Z,4.95
2017-04-19T10:40:41.769Z,4.07
2017-04-19T10:41:40.984Z,4.12
2017-04-19T10:42:40.943Z,7.92
2017-04-19T10:43:40.260Z,10.48
2017-04-19T10:44:39.533Z,6.00
2017-04-19T10:45:38.773Z,4.40
2017-04-19T10:46:38.028Z,3.55
2017-04-19T10:47:37.260Z,4.95
2017-04-19T10:48:36.476Z,3.58
2017-04-19T10:49:35.739Z,6.42
2017-04-19T10:50:34.956Z,4.28
2017-04-19T10:51:34.173Z,4.25
2017-04-19T10:52:33.400Z,3.97
2017-04-19T10:53:32.829Z,3.68
2017-04-19T10:54:32.144Z,4.52
2017-04-19T10:55:30.692Z,3.70
2017-04-19T10:56:29.980Z,3.78
2017-04-19T10:57:29.194Z,5.65
2017-04-19T10:58:28.400Z,4.07
2017-04-19T10:59:27.656Z,3.42
2017-04-19T11:00:26.892Z,3.95
2017-04-19T11:01:26.112Z,3.47
2017-04-19T11:02:25.355Z,6.20
2017-04-19T11:03:24.588Z,3.30
2017-04-19T11:04:23.860Z,3.83
2017-04-19T11:05:23.118Z,3.20
2017-04-19T11:06:22.363Z,3.03
2017-04-19T11:07:21.596Z,2.98
2017-04-19T11:08:20.863Z,3.15
2017-04-19T11:09:20.513Z,3.98
2017-04-19T11:10:19.732Z,3.85
2017-04-19T11:11:18.988Z,3.10
2017-04-19T11:12:17.449Z,4.33
2017-04-19T11:13:16.676Z,3.48
2017-04-19T11:14:15.892Z,7.43
2017-04-19T11:15:15.892Z,3.48
2017-04-19T11:16:15.102Z,3.97
2017-04-19T11:17:14.315Z,4.50
2017-04-19T11:18:13.586Z,3.62
2017-04-19T11:19:12.820Z,3.35
2017-04-19T11:20:12.184Z,4.23
2017-04-19T11:21:11.429Z,3.92
2017-04-19T11:22:10.651Z,3.62
2017-04-19T11:23:09.927Z,3.98
2017-04-19T11:24:09.152Z,3.77
2017-04-19T11:25:08.458Z,3.37
2017-04-19T11:26:07.716Z,3.53
2017-04-19T11:27:06.979Z,5.40
2017-04-19T11:28:06.188Z,4.12
2017-04-19T11:29:04.666Z,4.47
2017-04-19T11:30:03.992Z,3.23
2017-04-19T11:31:03.276Z,3.98
2017-04-19T11:32:02.495Z,4.50
2017-04-19T11:33:01.720Z,3.95
2017-04-19T11:34:00.944Z,4.52
2017-04-19T11:35:00.471Z,5.57
2017-04-19T11:35:59.696Z,6.07
2017-04-19T11:36:58.924Z,3.83
2017-04-19T11:37:58.149Z,3.50
2017-04-19T11:38:57.384Z,4.03
2017-04-19T11:39:56.595Z,4.48
2017-04-19T11:40:55.848Z,3.10
2017-04-19T11:41:55.150Z,4.47
2017-04-19T11:42:54.408Z,3.02
2017-04-19T11:43:53.724Z,3.57
2017-04-19T11:44:52.964Z,3.38
2017-04-19T11:45:52.297Z,3.03
2017-04-19T11:46:51.535Z,3.57
2017-04-19T11:47:50.767Z,3.62
2017-04-19T11:48:49.228Z,3.50
2017-04-19T11:49:48.459Z,3.02
2017-04-19T11:50:47.723Z,3.73
2017-04-19T11:51:46.935Z,2.98
2017-04-19T11:52:46.180Z,3.72
2017-04-19T11:53:45.439Z,3.20
2017-04-19T11:54:43.898Z,2.65
2017-04-19T11:55:43.144Z,4.62
2017-04-19T11:56:42.364Z,5.73
2017-04-19T11:57:41.585Z,2.65
2017-04-19T11:58:40.856Z,3.03
2017-04-19T11:59:40.079Z,3.80
2017-04-19T12:00:39.363Z,2.80
2017-04-19T12:01:38.608Z,3.12
2017-04-19T12:02:37.808Z,3.40
2017-04-19T12:03:37.052Z,2.95
2017-04-19T12:04:36.272Z,4.32
2017-04-19T12:05:35.617Z,3.62
2017-04-19T12:06:34.860Z,3.47
2017-04-19T12:07:34.098Z,2.48
2017-04-19T12:08:33.332Z,3.53
2017-04-19T12:09:32.563Z,3.22
2017-04-19T12:10:32.300Z,2.93
2017-04-19T12:11:30.769Z,3.62
2017-04-19T12:12:30.004Z,3.50
2017-04-19T12:13:29.233Z,3.67
2017-04-19T12:14:28.456Z,2.67
2017-04-19T12:15:26.930Z,3.30
2017-04-19T12:16:26.183Z,5.27
2017-04-19T12:17:25.401Z,3.58
2017-04-19T12:18:24.612Z,3.15
2017-04-19T12:19:23.825Z,3.12
2017-04-19T12:20:23.044Z,3.50
2017-04-19T12:21:22.344Z,3.42
2017-04-19T12:22:21.624Z,5.78
2017-04-19T12:23:20.856Z,3.48
2017-04-19T12:24:20.098Z,3.62
2017-04-19T12:25:19.308Z,3.17
2017-04-19T12:26:18.600Z,3.38
2017-04-19T12:27:17.832Z,4.12
2017-04-19T12:28:17.040Z,4.07
2017-04-19T12:29:16.264Z,3.93
2017-04-19T12:30:16.228Z,4.08
2017-04-19T12:31:15.484Z,3.50
2017-04-19T12:32:14.715Z,2.82
2017-04-19T12:33:13.960Z,3.28
2017-04-19T12:34:13.243Z,3.28
2017-04-19T12:35:12.470Z,3.93
2017-04-19T12:36:11.716Z,2.88
2017-04-19T12:37:10.948Z,2.63
2017-04-19T12:38:10.909Z,3.00
2017-04-19T12:39:10.875Z,2.47
2017-04-19T12:40:09.429Z,3.05
2017-04-19T12:41:08.688Z,2.98
2017-04-19T12:42:07.942Z,2.70
2017-04-19T12:43:07.169Z,2.58
2017-04-19T12:44:07.144Z,3.93
2017-04-19T12:45:06.364Z,3.00
2017-04-19T12:46:05.881Z,3.28
2017-04-19T12:47:05.112Z,3.37
2017-04-19T12:48:04.335Z,3.00
2017-04-19T12:49:03.612Z,3.43
2017-04-19T12:50:02.832Z,3.05
2017-04-19T12:51:02.100Z,3.17
2017-04-19T12:52:00.597Z,3.08
2017-04-19T12:52:59.815Z,3.83
2017-04-19T12:53:59.028Z,3.87
2017-04-19T12:54:58.296Z,4.37
2017-04-19T12:55:57.516Z,4.15
2017-04-19T12:56:56.772Z,4.43
2017-04-19T12:57:55.988Z,3.52
2017-04-19T12:58:55.336Z,2.90
2017-04-19T12:59:54.568Z,4.15
2017-04-19T13:00:53.788Z,3.38
2017-04-19T13:01:53.032Z,3.62
2017-04-19T13:02:52.311Z,4.60
2017-04-19T13:03:51.566Z,3.87
2017-04-19T13:04:50.788Z,2.97
2017-04-19T13:05:50.020Z,4.02